Time;durP1;ratioP1;P1;durP2;ratioP2;P2;SDS_P1;SDS_P2;PMS_P1;PMS_P2;Temp;Humidity;BMP_temperature;BMP_pressure;BME280_temperature;BME280_humidity;BME280_pressure;Samples;Min_cycle;Max_cycle;Signal;HPM_P1;HPM_P2
2021/11/19 00:01:20;;;;;;;21.62;11.60;;;;;;;6.97;93.34;101045.69;1731095;80;27414;-68
2021/11/19 00:03:47;;;;;;;19.07;11.10;;;;;;;6.99;93.53;101025.20;1722915;81;25759;-69
2021/11/19 00:06:15;;;;;;;19.27;10.80;;;;;;;6.99;93.79;101021.67;1700175;82;99220;-68
2021/11/19 00:08:42;;;;;;;17.20;11.50;;;;;;;7.01;93.96;101019.84;1744750;80;25788;-68
2021/11/19 00:11:14;;;;;;;16.40;10.98;;;;;;;7.02;94.01;101040.25;1739626;80;98970;-68
2021/11/19 00:13:41;;;;;;;22.05;13.13;;;;;;;7.01;94.07;101025.17;1744371;80;27482;-68
2021/11/19 00:16:09;;;;;;;21.30;12.58;;;;;;;7.03;94.31;101034.89;1690940;81;25367;-69
2021/11/19 00:18:35;;;;;;;18.45;12.37;;;;;;;7.03;94.25;101045.55;1739611;80;98537;-67
2021/11/19 00:21:03;;;;;;;19.30;11.08;;;;;;;7.03;94.39;101030.02;1736286;80;25777;-67
2021/11/19 00:23:29;;;;;;;21.57;11.80;;;;;;;7.06;94.56;101016.63;1740290;80;98781;-68
2021/11/19 00:25:55;;;;;;;21.75;13.00;;;;;;;7.07;94.63;101023.70;1740866;80;29453;-69
2021/11/19 00:28:22;;;;;;;21.87;12.95;;;;;;;7.08;94.64;101022.80;1741257;80;98903;-68
2021/11/19 00:30:48;;;;;;;23.70;13.38;;;;;;;7.11;94.69;101034.72;1737305;80;25782;-70
2021/11/19 00:33:14;;;;;;;24.63;13.38;;;;;;;7.11;94.81;101023.59;1748832;79;25773;-69
2021/11/19 00:35:43;;;;;;;24.57;13.80;;;;;;;7.12;94.78;101048.47;1746137;80;98743;-70
2021/11/19 00:38:12;;;;;;;23.70;13.62;;;;;;;7.11;94.91;101027.59;1744430;80;27449;-69
2021/11/19 00:40:44;;;;;;;20.82;12.13;;;;;;;7.15;95.07;101016.41;1746691;80;98975;-69
2021/11/19 00:43:11;;;;;;;26.90;14.47;;;;;;;7.14;95.16;101011.53;1747329;80;25694;-69
2021/11/19 00:45:38;;;;;;;21.27;13.35;;;;;;;7.15;95.16;101013.74;1744230;80;26487;-69
2021/11/19 00:48:07;;;;;;;26.55;15.28;;;;;;;7.13;95.12;101005.78;1750662;80;98661;-68
2021/11/19 00:50:38;;;;;;;26.37;13.93;;;;;;;7.14;95.12;101011.98;1726198;80;28283;-70
2021/11/19 00:53:05;;;;;;;27.00;15.53;;;;;;;7.14;95.15;101017.31;1719359;81;98846;-71
2021/11/19 00:55:32;;;;;;;22.60;13.75;;;;;;;7.16;95.35;101008.83;1742462;79;25706;-70
2021/11/19 00:57:58;;;;;;;28.30;15.28;;;;;;;7.16;95.42;101014.16;1737907;81;25772;-70
2021/11/19 01:00:33;;;;;;;28.32;15.85;;;;;;;7.15;95.54;101009.28;1730659;81;99124;-70
2021/11/19 01:02:58;;;;;;;27.40;16.40;;;;;;;7.16;95.51;101022.16;1683037;83;27490;-69
2021/11/19 01:05:25;;;;;;;32.90;16.12;;;;;;;7.16;95.51;101009.70;1725641;80;98761;-69
2021/11/19 01:07:51;;;;;;;26.25;15.13;;;;;;;7.18;95.57;101017.67;1707087;82;26078;-69
2021/11/19 01:10:25;;;;;;;40.17;17.20;;;;;;;7.18;95.56;101019.00;1730647;81;26199;-70
2021/11/19 01:12:51;;;;;;;33.73;17.77;;;;;;;7.19;95.64;101031.41;1729103;81;98510;-69
2021/11/19 01:15:32;;;;;;;29.02;16.60;;;;;;;7.22;95.75;101019.34;1730522;81;29526;-69
2021/11/19 01:18:09;;;;;;;25.35;16.00;;;;;;;7.22;95.73;101030.02;1729373;81;98739;-69
2021/11/19 01:20:45;;;;;;;30.70;15.20;;;;;;;7.25;95.88;101029.06;1730450;81;25771;-70
2021/11/19 01:23:15;;;;;;;29.42;15.98;;;;;;;7.27;96.05;101028.57;1731449;81;98984;-70
2021/11/19 01:25:47;;;;;;;28.83;15.30;;;;;;;7.28;96.15;100997.88;1728404;81;25834;-69
2021/11/19 01:28:14;;;;;;;33.02;16.65;;;;;;;7.29;96.23;101010.29;1732288;81;27494;-69
2021/11/19 01:30:51;;;;;;;33.65;17.10;;;;;;;7.28;96.23;101008.53;1732317;81;98715;-70
2021/11/19 01:33:18;;;;;;;42.83;19.02;;;;;;;7.30;96.25;101012.05;1733209;80;25769;-70
2021/11/19 01:35:45;;;;;;;32.20;18.60;;;;;;;7.32;96.32;101020.88;1726825;81;98706;-71
2021/11/19 01:38:11;;;;;;;28.65;17.55;;;;;;;7.33;96.41;101005.30;1728958;80;25821;-70
2021/11/19 01:40:43;;;;;;;34.35;18.48;;;;;;;7.35;96.45;101014.14;1727295;81;98843;-69
2021/11/19 01:43:13;;;;;;;36.60;17.37;;;;;;;7.37;96.51;101010.11;1725782;81;25873;-69
2021/11/19 01:45:50;;;;;;;39.85;19.85;;;;;;;7.35;96.46;101010.14;1730973;81;25800;-69
2021/11/19 01:48:21;;;;;;;33.80;18.95;;;;;;;7.36;96.51;101006.56;1735704;82;98750;-70
2021/11/19 01:50:55;;;;;;;37.33;18.07;;;;;;;7.39;96.65;101002.95;1737069;82;25688;-70
2021/11/19 01:53:41;;;;;;;43.42;19.25;;;;;;;7.39;96.75;101011.82;1735954;81;98740;-70
2021/11/19 01:56:25;;;;;;;41.53;18.82;;;;;;;7.40;96.81;101003.36;1737219;82;26175;-69
2021/11/19 01:58:59;;;;;;;40.75;19.90;;;;;;;7.41;96.83;101008.66;1735318;82;99001;-70
2021/11/19 02:01:37;;;;;;;38.75;20.15;;;;;;;7.42;96.93;101000.20;1736212;82;25826;-70
2021/11/19 02:04:08;;;;;;;36.70;18.15;;;;;;;7.43;96.94;100999.29;1737320;82;25703;-70
2021/11/19 02:06:42;;;;;;;33.55;18.07;;;;;;;7.45;96.96;100997.45;1735729;82;98754;-71
2021/11/19 02:09:14;;;;;;;36.75;18.98;;;;;;;7.46;97.08;100994.75;1736847;82;25624;-70
2021/11/19 02:12:19;;;;;;;34.48;17.37;;;;;;;7.46;97.04;101000.55;1735765;82;98666;-71
2021/11/19 02:15:05;;;;;;;32.48;16.05;;;;;;;7.49;97.08;100986.67;1736824;82;25748;-71
2021/11/19 02:17:31;;;;;;;31.90;15.10;;;;;;;7.48;97.05;100978.25;1735658;82;98827;-70
2021/11/19 02:20:03;;;;;;;32.38;17.40;;;;;;;7.49;97.10;100977.34;1737196;82;27407;-71
2021/11/19 02:22:42;;;;;;;31.05;17.60;;;;;;;7.53;97.20;100982.14;1736301;82;25629;-71
2021/11/19 02:25:14;;;;;;;30.32;16.12;;;;;;;7.55;97.18;100988.77;1728963;81;98511;-71
2021/11/19 02:27:48;;;;;;;29.23;16.67;;;;;;;7.57;97.21;100974.94;1732362;81;25696;-71
2021/11/19 02:30:22;;;;;;;34.88;18.52;;;;;;;7.58;97.31;100981.56;1733933;80;98646;-71
2021/11/19 02:32:54;;;;;;;42.33;19.27;;;;;;;7.61;97.43;100965.94;1720689;81;27339;-71
2021/11/19 02:35:25;;;;;;;41.37;20.25;;;;;;;7.64;97.59;100979.20;1735314;80;98832;-72
2021/11/19 02:37:56;;;;;;;45.28;21.10;;;;;;;7.64;97.61;100984.53;1730158;81;25742;-73
2021/11/19 02:40:26;;;;;;;;;;;;;;;7.65;97.66;100973.82;1729746;81;26459;-72
2021/11/19 02:43:00;;;;;;;33.13;17.23;;;;;;;7.66;97.72;100981.37;1728098;81;83679;-71
2021/11/19 02:45:39;;;;;;;40.98;19.00;;;;;;;7.62;97.79;100967.69;1728925;81;28024;-71
2021/11/19 02:48:09;;;;;;;35.03;19.00;;;;;;;7.68;97.89;101001.75;1733428;81;98762;-72
2021/11/19 02:50:36;;;;;;;44.95;21.70;;;;;;;7.69;97.92;101002.63;1735281;81;25440;-71
2021/11/19 02:53:05;;;;;;;41.15;21.27;;;;;;;7.72;97.97;100986.55;1727395;80;98878;-71
2021/11/19 02:55:36;;;;;;;47.90;23.15;;;;;;;7.75;97.97;100990.01;1738067;81;25808;-70
2021/11/19 02:58:06;;;;;;;72.10;31.73;;;;;;;7.76;98.03;100981.09;1727552;81;28100;-71
2021/11/19 03:00:41;;;;;;;70.50;31.90;;;;;;;7.78;97.97;100981.05;1727865;81;98852;-72
2021/11/19 03:03:07;;;;;;;51.58;26.30;;;;;;;7.79;98.00;100986.34;1729573;81;25778;-71
2021/11/19 03:05:33;;;;;;;49.73;24.80;;;;;;;7.81;98.07;100991.61;1725780;81;98705;-71
2021/11/19 03:07:59;;;;;;;40.95;22.35;;;;;;;7.82;98.12;100988.89;1732807;81;25965;-71
2021/11/19 03:10:31;;;;;;;45.88;24.57;;;;;;;7.83;98.13;100987.11;1733651;81;27427;-71
2021/11/19 03:12:59;;;;;;;64.50;27.02;;;;;;;7.85;98.22;100974.59;1725887;81;98642;-71
2021/11/19 03:15:30;;;;;;;69.67;28.92;;;;;;;7.86;98.22;100970.13;1734340;81;25806;-70
2021/11/19 03:17:56;;;;;;;61.48;27.70;;;;;;;7.85;98.27;100969.26;1718213;81;98703;-71
2021/11/19 03:20:24;;;;;;;49.35;26.12;;;;;;;7.87;98.29;100986.11;1729085;81;25763;-71
2021/11/19 03:22:52;;;;;;;42.75;23.70;;;;;;;7.89;98.35;100972.72;1731629;81;98885;-71
2021/11/19 03:25:23;;;;;;;55.28;27.90;;;;;;;7.91;98.46;100969.09;1729291;81;26438;-70
2021/11/19 03:27:50;;;;;;;70.55;27.22;;;;;;;7.92;98.56;100966.84;1699516;82;25846;-70
2021/11/19 03:30:20;;;;;;;52.48;24.25;;;;;;;7.92;98.67;100981.52;1748132;80;98854;-70
2021/11/19 03:32:48;;;;;;;53.40;26.50;;;;;;;7.94;98.73;100976.14;1741343;80;25789;-71
2021/11/19 03:35:17;;;;;;;53.40;27.58;;;;;;;7.94;98.72;100963.67;1724529;80;99013;-70
2021/11/19 03:37:47;;;;;;;57.17;29.40;;;;;;;7.95;98.70;100966.76;1694520;82;26390;-69
2021/11/19 03:40:18;;;;;;;62.78;28.75;;;;;;;7.99;98.77;100980.89;1741844;80;26379;-71
2021/11/19 03:42:46;;;;;;;69.27;31.15;;;;;;;8.00;98.87;100963.96;1711588;81;98617;-71
2021/11/19 03:45:17;;;;;;;62.48;27.13;;;;;;;8.01;98.92;100968.38;1739749;80;25747;-71
2021/11/19 03:47:47;;;;;;;56.53;25.45;;;;;;;8.04;98.96;100966.50;1693505;82;98833;-70
2021/11/19 03:50:25;;;;;;;61.33;27.67;;;;;;;8.05;99.02;100956.70;1714335;81;26369;-71
2021/11/19 03:52:51;;;;;;;57.53;25.45;;;;;;;8.06;99.03;100958.45;1698239;81;99188;-70
2021/11/19 03:55:23;;;;;;;54.90;25.82;;;;;;;8.07;99.04;100969.09;1700265;81;25783;-70
2021/11/19 03:57:49;;;;;;;51.28;24.63;;;;;;;8.11;99.14;100965.41;1702293;81;25761;-71
2021/11/19 04:00:26;;;;;;;53.38;27.13;;;;;;;8.17;99.33;100957.69;1725782;80;98936;-71
2021/11/19 04:02:54;;;;;;;45.78;23.10;;;;;;;8.24;99.45;100961.06;1724749;81;27168;-71
2021/11/19 04:05:21;;;;;;;44.83;23.47;;;;;;;8.26;99.54;100949.88;1725775;81;98982;-71
2021/11/19 04:07:47;;;;;;;49.70;24.55;;;;;;;8.28;99.58;100958.72;1726548;81;26387;-70
2021/11/19 04:10:15;;;;;;;43.80;22.80;;;;;;;8.29;99.63;100985.84;1719412;80;25771;-71
2021/11/19 04:12:42;;;;;;;42.93;22.58;;;;;;;8.28;99.68;100952.92;1726322;81;98895;-71
2021/11/19 04:15:14;;;;;;;39.95;21.27;;;;;;;8.32;99.63;100959.05;1728746;81;25836;-70
2021/11/19 04:17:40;;;;;;;45.23;22.40;;;;;;;8.34;99.70;100953.23;1726812;80;98962;-71
2021/11/19 04:20:08;;;;;;;48.87;23.75;;;;;;;8.36;99.74;100964.75;1689204;81;25787;-70
2021/11/19 04:22:34;;;;;;;43.78;22.93;;;;;;;8.37;99.85;100966.50;1746054;80;25750;-70
2021/11/19 04:25:05;;;;;;;39.15;20.92;;;;;;;8.38;99.89;100980.27;1749030;79;99252;-70
2021/11/19 04:27:32;;;;;;;43.83;25.12;;;;;;;8.38;99.98;100977.59;1750050;80;25806;-70
2021/11/19 04:29:58;;;;;;;48.65;23.83;;;;;;;8.39;100.00;100970.00;1751002;80;99365;-70
2021/11/19 04:32:25;;;;;;;35.50;19.90;;;;;;;8.39;100.00;100965.53;1738671;80;26471;-69
2021/11/19 04:34:56;;;;;;;35.70;19.70;;;;;;;8.42;100.00;100997.50;1731605;80;99240;-71
2021/11/19 04:37:23;;;;;;;37.85;19.98;;;;;;;8.43;100.00;100971.20;1729023;80;27457;-70
2021/11/19 04:39:50;;;;;;;40.23;21.00;;;;;;;8.43;100.00;100959.18;1725544;80;26703;-71
2021/11/19 04:42:17;;;;;;;36.45;20.02;;;;;;;8.44;100.00;100969.41;1723030;81;99037;-71
2021/11/19 04:44:44;;;;;;;38.55;20.40;;;;;;;8.48;100.00;100979.55;1722230;81;25668;-71
2021/11/19 04:47:10;;;;;;;38.92;19.62;;;;;;;8.49;100.00;100978.62;1730880;81;99154;-70
2021/11/19 04:49:37;;;;;;;33.45;18.82;;;;;;;8.51;100.00;100978.11;1728363;81;27383;-69
2021/11/19 04:52:09;;;;;;;39.88;19.02;;;;;;;8.49;100.00;100978.16;1731391;81;25765;-68
2021/11/19 04:54:35;;;;;;;;;;;;;;;8.50;100.00;100981.70;1740863;80;99364;-68
2021/11/19 04:57:03;;;;;;;30.62;17.92;;;;;;;8.55;100.00;100998.48;1735689;80;26826;-69
2021/11/19 04:59:31;;;;;;;34.23;18.87;;;;;;;8.53;100.00;100973.14;1740007;80;99345;-69
2021/11/19 05:02:03;;;;;;;33.40;17.42;;;;;;;8.56;100.00;100981.52;1735371;80;29578;-68
2021/11/19 05:04:29;;;;;;;32.60;16.77;;;;;;;8.57;100.00;100984.16;1724568;81;25761;-68
2021/11/19 05:06:56;;;;;;;34.90;18.75;;;;;;;8.58;100.00;100983.23;1726833;81;99087;-69
2021/11/19 05:09:21;;;;;;;26.90;16.35;;;;;;;8.61;100.00;100985.81;1737774;80;26441;-69
2021/11/19 05:11:56;;;;;;;29.52;17.95;;;;;;;8.63;100.00;100977.29;1722663;81;98997;-70
2021/11/19 05:14:23;;;;;;;28.20;16.70;;;;;;;8.61;100.00;100977.80;1738707;80;27401;-70
2021/11/19 05:16:49;;;;;;;32.78;17.42;;;;;;;8.61;100.00;100972.91;1739658;80;99249;-70
2021/11/19 05:19:17;;;;;;;33.02;19.45;;;;;;;8.63;100.00;100990.65;1742686;80;25727;-70
2021/11/19 05:21:44;;;;;;;27.70;16.75;;;;;;;8.64;100.00;100975.49;1733147;81;26444;-70
2021/11/19 05:24:11;;;;;;;28.70;18.35;;;;;;;8.64;100.00;100985.72;1736137;80;99038;-70
2021/11/19 05:26:42;;;;;;;29.90;17.52;;;;;;;8.65;100.00;100982.13;1735398;80;28430;-69
2021/11/19 05:29:08;;;;;;;28.75;17.40;;;;;;;8.67;100.00;100973.60;1744674;80;99250;-69
2021/11/19 05:31:36;;;;;;;34.50;18.85;;;;;;;8.68;100.00;100975.81;1742790;80;25820;-69
2021/11/19 05:34:06;;;;;;;37.75;18.87;;;;;;;8.68;100.00;100995.40;1720912;81;25715;-69
2021/11/19 05:36:32;;;;;;;29.37;17.67;;;;;;;8.70;100.00;100978.86;1687671;83;99226;-69
2021/11/19 05:38:59;;;;;;;31.30;17.85;;;;;;;8.71;100.00;100979.27;1688415;83;28211;-69
2021/11/19 05:41:27;;;;;;;36.42;19.40;;;;;;;8.73;100.00;100981.44;1687147;83;99236;-69
2021/11/19 05:43:54;;;;;;;33.85;18.57;;;;;;;8.75;100.00;100992.08;1742767;80;25817;-69
2021/11/19 05:46:24;;;;;;;32.80;17.07;;;;;;;8.76;100.00;100990.70;1735457;80;26530;-70
2021/11/19 05:48:53;;;;;;;31.17;17.32;;;;;;;8.80;100.00;101003.50;1739397;80;99124;-69
2021/11/19 05:51:21;;;;;;;24.92;15.98;;;;;;;8.82;100.00;100994.11;1739683;80;27377;-69
2021/11/19 05:53:49;;;;;;;33.80;17.82;;;;;;;8.83;100.00;100986.04;1738086;80;99080;-69
2021/11/19 05:56:16;;;;;;;38.20;19.12;;;;;;;8.84;100.00;100975.77;1735088;80;25738;-69
2021/11/19 05:58:43;;;;;;;34.63;17.90;;;;;;;8.86;100.00;101003.32;1738819;80;25841;-69
2021/11/19 06:01:13;;;;;;;31.62;17.50;;;;;;;8.88;100.00;101006.82;1740051;80;98836;-69
2021/11/19 06:03:41;;;;;;;34.27;18.90;;;;;;;8.89;100.00;100998.34;1736787;80;30498;-69
2021/11/19 06:06:09;;;;;;;46.30;19.37;;;;;;;8.91;100.00;101005.39;1730264;80;99096;-68
2021/11/19 06:08:41;;;;;;;28.00;17.17;;;;;;;8.95;100.00;101019.54;1733567;80;25787;-69
2021/11/19 06:11:15;;;;;;;30.92;16.77;;;;;;;8.96;100.00;100994.55;1743725;80;99266;-68
2021/11/19 06:13:50;;;;;;;35.63;18.82;;;;;;;8.98;100.00;101018.11;1732426;80;25779;-69
2021/11/19 06:16:23;;;;;;;33.28;18.07;;;;;;;8.99;100.00;101008.70;1743642;80;27476;-69
2021/11/19 06:19:00;;;;;;;51.08;20.52;;;;;;;9.00;100.00;101019.81;1740999;80;99092;-70
2021/11/19 06:21:34;;;;;;;35.10;17.52;;;;;;;9.03;100.00;101010.82;1739595;80;25739;-69
2021/11/19 06:24:05;;;;;;;31.05;17.85;;;;;;;9.07;100.00;101008.47;1736865;80;99181;-69
2021/11/19 06:26:32;;;;;;;55.45;22.27;;;;;;;9.07;100.00;101016.48;1741483;80;25999;-68
2021/11/19 06:29:08;;;;;;;31.82;17.45;;;;;;;9.08;100.00;101018.23;1740542;80;99166;-68
2021/11/19 06:31:36;;;;;;;38.38;19.52;;;;;;;9.07;100.00;101022.71;1745045;80;25752;-69
2021/11/19 06:34:03;;;;;;;39.20;21.65;;;;;;;9.08;100.00;101016.44;1740193;80;25802;-69
2021/11/19 06:36:31;;;;;;;34.30;19.10;;;;;;;9.11;100.00;101014.13;1734178;80;99009;-69
2021/11/19 06:38:59;;;;;;;37.38;17.48;;;;;;;9.15;100.00;101030.95;1743582;80;25937;-69
2021/11/19 06:41:25;;;;;;;39.20;18.48;;;;;;;9.17;100.00;101034.00;1742607;80;99070;-69
2021/11/19 06:43:52;;;;;;;36.63;16.75;;;;;;;9.21;100.00;101046.81;1744247;81;25746;-68
2021/11/19 06:46:21;;;;;;;38.92;19.52;;;;;;;9.23;100.00;101024.91;1745453;80;25721;-68
2021/11/19 06:48:48;;;;;;;37.95;20.00;;;;;;;9.22;100.00;101020.02;1735059;80;99090;-68
2021/11/19 06:51:16;;;;;;;64.12;23.98;;;;;;;9.24;100.00;101003.45;1737181;80;25709;-69
2021/11/19 06:53:43;;;;;;;34.58;17.05;;;;;;;9.28;100.00;101011.80;1739986;80;98930;-68
2021/11/19 06:56:10;;;;;;;43.40;19.48;;;;;;;9.29;100.00;101010.88;1743414;80;25796;-69
2021/11/19 06:58:37;;;;;;;29.05;17.17;;;;;;;9.30;100.00;101027.80;1737983;80;25756;-69
2021/11/19 07:01:04;;;;;;;40.15;18.98;;;;;;;9.32;100.00;101006.76;1743395;80;98995;-70
2021/11/19 07:03:31;;;;;;;40.35;20.52;;;;;;;9.33;100.00;101015.20;1709217;82;26595;-70
2021/11/19 07:05:58;;;;;;;28.27;15.98;;;;;;;9.35;100.00;101021.84;1711215;81;98946;-69
2021/11/19 07:08:24;;;;;;;39.53;20.40;;;;;;;9.36;100.00;101015.56;1739729;80;25750;-69
2021/11/19 07:10:55;;;;;;;30.88;17.12;;;;;;;9.36;100.00;101031.61;1746127;80;99321;-70
2021/11/19 07:13:23;;;;;;;41.42;17.45;;;;;;;9.37;100.00;101021.33;1719544;81;25993;-70
2021/11/19 07:15:48;;;;;;;28.73;15.55;;;;;;;9.36;100.00;101045.86;1691311;82;25799;-71
2021/11/19 07:18:15;;;;;;;26.65;14.50;;;;;;;9.40;100.00;101031.92;1732308;80;99373;-68
2021/11/19 07:20:42;;;;;;;43.50;18.35;;;;;;;9.42;100.00;101017.58;1743984;80;25733;-70
2021/11/19 07:23:10;;;;;;;39.27;17.37;;;;;;;9.43;100.00;101035.38;1739566;80;99161;-71
2021/11/19 07:25:39;;;;;;;28.00;16.80;;;;;;;9.43;100.00;101019.33;1734432;80;25922;-71
2021/11/19 07:28:07;;;;;;;26.70;15.32;;;;;;;9.43;100.00;101038.05;1738891;80;25768;-71
2021/11/19 07:30:39;;;;;;;35.25;17.17;;;;;;;9.44;100.00;101039.80;1731854;80;99078;-71
2021/11/19 07:33:04;;;;;;;35.73;15.38;;;;;;;9.47;100.00;101045.52;1723118;80;26444;-70
2021/11/19 07:35:31;;;;;;;26.25;13.05;;;;;;;9.46;100.00;101047.78;1740990;80;99226;-70
2021/11/19 07:37:57;;;;;;;22.45;13.78;;;;;;;9.50;100.00;101061.94;1742031;79;26312;-70
2021/11/19 07:40:27;;;;;;;28.90;14.68;;;;;;;9.51;100.00;101059.67;1743252;80;26474;-72
2021/11/19 07:42:53;;;;;;;24.93;12.87;;;;;;;9.52;100.00;101072.13;1743080;80;99118;-70
2021/11/19 07:45:19;;;;;;;25.40;14.90;;;;;;;9.54;100.00;101059.58;1720035;81;25969;-72
2021/11/19 07:47:46;;;;;;;30.35;15.88;;;;;;;9.51;100.00;101053.86;1686405;82;99332;-70
2021/11/19 07:50:16;;;;;;;21.60;13.13;;;;;;;9.55;100.00;101053.30;1705290;82;26585;-68
2021/11/19 07:52:42;;;;;;;33.95;14.20;;;;;;;9.54;100.00;101048.88;1718694;81;25780;-71
2021/11/19 07:55:10;;;;;;;27.02;14.98;;;;;;;9.57;100.00;101056.80;1722876;81;98889;-70
2021/11/19 07:57:37;;;;;;;27.90;15.00;;;;;;;9.60;100.00;101052.69;1691712;82;25962;-69
2021/11/19 08:00:09;;;;;;;27.05;14.18;;;;;;;9.61;100.00;101050.42;1727668;81;99738;-71
2021/11/19 08:02:35;;;;;;;30.48;15.28;;;;;;;9.64;100.00;101053.00;1683405;82;27333;-74
2021/11/19 08:05:03;;;;;;;34.90;16.82;;;;;;;9.64;100.00;101063.70;1677390;83;99175;-71
2021/11/19 08:07:29;;;;;;;32.15;15.18;;;;;;;9.69;100.00;101093.88;1696152;82;27423;-70
2021/11/19 08:09:55;;;;;;;25.37;13.80;;;;;;;9.70;100.00;101039.41;1712079;82;25815;-71
2021/11/19 08:12:21;;;;;;;25.25;13.70;;;;;;;9.72;100.00;101057.64;1697025;82;99160;-71
2021/11/19 08:14:47;;;;;;;21.02;13.03;;;;;;;9.75;100.00;101055.73;1701721;82;28394;-70
2021/11/19 08:17:33;;;;;;;23.18;13.32;;;;;;;9.67;100.00;101047.08;1704616;82;99501;-70
2021/11/19 08:20:01;;;;;;;22.42;13.05;;;;;;;9.80;100.00;101061.39;1680316;82;27443;-74
2021/11/19 08:22:27;;;;;;;31.40;13.08;;;;;;;9.81;100.00;101068.50;1677827;82;25885;-73
2021/11/19 08:24:55;;;;;;;28.65;12.68;;;;;;;9.81;100.00;101069.38;1671111;84;99486;-73
2021/11/19 08:27:26;;;;;;;29.12;13.25;;;;;;;9.81;100.00;101069.38;1702895;82;26058;-72
2021/11/19 08:29:56;;;;;;;22.13;12.10;;;;;;;9.81;100.00;101061.34;1699328;82;99208;-70
2021/11/19 08:32:26;;;;;;;16.13;10.80;;;;;;;9.82;100.00;101088.53;1684859;83;28380;-71
2021/11/19 08:34:53;;;;;;;20.60;11.63;;;;;;;9.82;100.00;101080.50;1686677;83;99164;-70
2021/11/19 08:37:24;;;;;;;21.10;12.20;;;;;;;9.83;100.00;101086.73;1686024;83;25808;-68
2021/11/19 08:39:51;;;;;;;17.55;10.55;;;;;;;9.83;100.00;101084.05;1686678;83;25893;-69
2021/11/19 08:42:20;;;;;;;17.73;10.98;;;;;;;9.84;100.00;101092.03;1684108;83;99100;-71
2021/11/19 08:44:47;;;;;;;19.75;12.03;;;;;;;9.84;100.00;101091.16;1689103;83;27478;-70
2021/11/19 08:47:19;;;;;;;19.32;12.05;;;;;;;9.84;100.00;101089.35;1685897;83;99399;-68
2021/11/19 08:49:46;;;;;;;20.52;12.10;;;;;;;9.86;100.00;101080.80;1688992;83;26401;-69
2021/11/19 08:52:16;;;;;;;18.82;11.12;;;;;;;9.85;100.00;101125.91;1681936;83;25836;-69
2021/11/19 08:54:42;;;;;;;25.80;12.15;;;;;;;9.88;100.00;101096.36;1687327;83;99605;-69
2021/11/19 08:57:13;;;;;;;20.30;11.15;;;;;;;9.88;100.00;101090.13;1690293;83;27473;-69
2021/11/19 08:59:42;;;;;;;21.57;12.30;;;;;;;9.87;100.00;101090.59;1688024;82;99265;-69
2021/11/19 09:02:12;;;;;;;23.35;13.00;;;;;;;9.89;100.00;101090.54;1736687;80;25717;-74
2021/11/19 09:04:38;;;;;;;21.73;12.30;;;;;;;9.91;100.00;101096.25;1735742;81;25759;-68
2021/11/19 09:07:05;;;;;;;19.87;12.25;;;;;;;9.92;100.00;101085.08;1721901;80;98937;-71
2021/11/19 09:09:32;;;;;;;22.85;11.45;;;;;;;9.94;100.00;101084.10;1727326;80;28320;-71
2021/11/19 09:11:58;;;;;;;19.20;12.05;;;;;;;9.98;100.00;101083.53;1736994;80;99118;-71
2021/11/19 09:14:25;;;;;;;27.05;12.93;;;;;;;9.97;100.00;101084.00;1731893;81;25815;-72
2021/11/19 09:17:28;;;;;;;22.65;11.50;;;;;;;9.97;100.00;101071.95;1725489;81;99391;-71
2021/11/19 09:20:00;;;;;;;22.55;12.37;;;;;;;9.99;100.00;101074.11;1729844;81;25948;-71
2021/11/19 09:22:34;;;;;;;21.02;12.07;;;;;;;9.99;100.00;101079.47;1732260;81;27393;-69
2021/11/19 09:25:06;;;;;;;19.17;11.08;;;;;;;10.04;100.00;101088.69;1729803;81;99356;-70
2021/11/19 09:27:34;;;;;;;23.45;13.18;;;;;;;10.07;100.00;101062.67;1728106;81;25788;-71
2021/11/19 09:30:14;;;;;;;15.32;10.20;;;;;;;10.11;100.00;101063.91;1730982;81;99452;-68
2021/11/19 09:32:39;;;;;;;19.80;11.65;;;;;;;10.14;100.00;101047.73;1729803;81;25827;-68
2021/11/19 09:35:05;;;;;;;33.53;13.32;;;;;;;10.15;100.00;101062.41;1724733;81;99341;-71
2021/11/19 09:37:31;;;;;;;20.10;10.13;;;;;;;10.16;100.00;101058.80;1727059;81;25858;-70
2021/11/19 09:39:57;;;;;;;19.37;10.70;;;;;;;10.18;100.00;101053.39;1716837;81;25792;-69
2021/11/19 09:42:46;;;;;;;15.35;8.38;;;;;;;10.22;100.00;101056.41;1725864;81;99228;-70
2021/11/19 09:45:34;;;;;;;24.35;12.10;;;;;;;10.23;100.00;101045.63;1731563;81;25853;-73
2021/11/19 09:48:26;;;;;;;18.50;10.60;;;;;;;10.24;100.00;101069.28;1689066;83;99515;-73
2021/11/19 09:51:24;;;;;;;17.12;9.38;;;;;;;10.24;100.00;101043.83;1714910;81;26391;-75
2021/11/19 09:54:35;;;;;;;21.33;11.25;;;;;;;10.25;100.00;101058.51;1681955;83;99035;-75
2021/11/19 09:57:38;;;;;;;16.23;9.98;;;;;;;10.26;100.00;101059.38;1685791;82;25866;-75
2021/11/19 10:00:47;;;;;;;17.73;9.00;;;;;;;10.30;100.00;101055.20;1695273;83;99336;-73
2021/11/19 10:03:46;;;;;;;16.65;9.85;;;;;;;10.30;100.00;101056.54;1684763;83;27362;-75
2021/11/19 10:06:33;;;;;;;11.75;8.35;;;;;;;10.33;100.00;101083.23;1685296;83;99076;-74
2021/11/19 10:09:04;;;;;;;16.00;9.38;;;;;;;10.38;100.00;101079.05;1735342;80;25852;-76
2021/11/19 10:11:48;;;;;;;14.58;9.30;;;;;;;10.40;100.00;101078.03;1732946;80;99066;-75
2021/11/19 10:14:39;;;;;;;19.07;9.95;;;;;;;10.43;100.00;101077.51;1738477;80;25841;-75
2021/11/19 10:17:13;;;;;;;16.48;9.98;;;;;;;10.43;100.00;101089.56;1739552;80;99485;-71
2021/11/19 10:19:47;;;;;;;16.62;10.15;;;;;;;10.42;100.00;101072.61;1735208;80;26597;-76
2021/11/19 10:22:28;;;;;;;26.00;10.43;;;;;;;10.43;100.00;101082.41;1738817;80;25820;-74
2021/11/19 10:25:21;;;;;;;16.48;9.53;;;;;;;10.43;100.00;101094.46;1734005;80;99236;-74
2021/11/19 10:27:52;;;;;;;18.32;9.85;;;;;;;10.48;100.00;101079.09;1689084;83;25879;-73
2021/11/19 10:30:48;;;;;;;18.67;9.90;;;;;;;10.50;100.00;101109.86;1722692;80;99283;-74
2021/11/19 10:33:40;;;;;;;18.45;10.00;;;;;;;10.52;100.00;101075.38;1735805;80;26604;-74
2021/11/19 10:36:32;;;;;;;19.15;9.18;;;;;;;10.60;100.00;101078.65;1739357;80;99232;-72
2021/11/19 10:39:18;;;;;;;17.07;9.38;;;;;;;10.63;100.00;101081.22;1744192;80;25838;-73
2021/11/19 10:42:13;;;;;;;18.85;9.88;;;;;;;10.66;100.00;101079.77;1738877;80;99228;-74
2021/11/19 10:45:21;;;;;;;16.35;9.03;;;;;;;10.68;100.00;101065.84;1737717;80;27347;-73
2021/11/19 10:48:10;;;;;;;14.87;8.95;;;;;;;10.68;100.00;101066.30;1735417;80;99376;-72
2021/11/19 10:51:06;;;;;;;15.90;9.35;;;;;;;10.70;100.00;101061.77;1737284;80;25672;-71
2021/11/19 10:53:57;;;;;;;18.70;9.90;;;;;;;10.74;100.00;101074.12;1738076;80;99262;-70
2021/11/19 10:56:34;;;;;;;18.55;10.10;;;;;;;10.74;100.00;101060.71;1740527;80;25749;-71
2021/11/19 10:59:21;;;;;;;17.17;9.58;;;;;;;10.73;100.00;101070.56;1738706;80;99744;-71
2021/11/19 11:02:02;;;;;;;17.15;9.78;;;;;;;10.74;100.00;101067.42;1731693;80;25780;-72
2021/11/19 11:04:54;;;;;;;;;;;;;;;10.74;100.00;101065.61;1711704;81;25814;-71
2021/11/19 11:07:30;;;;;;;17.70;8.95;;;;;;;10.74;100.00;101084.37;1704591;81;84099;-72
2021/11/19 11:10:11;;;;;;;16.17;8.98;;;;;;;10.72;100.00;101071.50;1720145;81;25875;-74
2021/11/19 11:12:48;;;;;;;14.83;8.68;;;;;;;10.76;100.00;101066.02;1725060;81;99094;-74
2021/11/19 11:15:32;;;;;;;14.65;9.18;;;;;;;10.77;100.00;101064.62;1730968;81;25768;-73
2021/11/19 11:18:15;;;;;;;16.57;9.58;;;;;;;10.79;100.00;101051.16;1729490;80;98956;-75
2021/11/19 11:20:55;;;;;;;16.67;10.18;;;;;;;10.81;100.00;101060.02;1729287;81;25764;-74
2021/11/19 11:23:47;;;;;;;18.23;8.53;;;;;;;10.80;100.00;101051.09;1733757;81;99639;-74
2021/11/19 11:26:22;;;;;;;14.18;9.35;;;;;;;10.84;100.00;101057.22;1732365;81;28110;-74
2021/11/19 11:28:59;;;;;;;16.90;10.05;;;;;;;10.83;100.00;101067.07;1732639;80;25823;-74
2021/11/19 11:31:53;;;;;;;13.83;9.55;;;;;;;10.84;100.00;101070.63;1732028;81;98985;-75
2021/11/19 11:34:26;;;;;;;21.48;10.38;;;;;;;10.84;100.00;101056.75;1706943;81;25928;-75